bureau de piste


METAR LFMD 212030Z AUTO 07003KT 010V140 9999 FEW082 13/M00 Q1034

TAF LFMD 211400Z 2115/2215 09010KT CAVOK   TEMPO 2115/2121 09015G25KT

INFORMATION ADDS - 2104 UTC 21 Jan 2020


Plus d’information sur les terrains : LFMD et VALBERG

Les commentaires sont clos.